sensor_id;sensor_type;location;lat;lon;timestamp;pressure;altitude;pressure_sealevel;temperature
74485;BMP280;62942;52.462;10.846;2022-11-20T00:00:36;100460;;;
74485;BMP280;62942;52.462;10.846;2022-11-20T00:01:46;100460;;;
74485;BMP280;62942;52.462;10.846;2022-11-20T00:02:56;100450;;;
74485;BMP280;62942;52.462;10.846;2022-11-20T00:04:06;100450;;;
74485;BMP280;62942;52.462;10.846;2022-11-20T00:05:06;100460;;;
74485;BMP280;62942;52.462;10.846;2022-11-20T00:06:08;100450;;;
74485;BMP280;62942;52.462;10.846;2022-11-20T00:07:16;100450;;;
74485;BMP280;62942;52.462;10.846;2022-11-20T00:08:26;100450;;;
74485;BMP280;62942;52.462;10.846;2022-11-20T00:09:36;100450;;;
74485;BMP280;62942;52.462;10.846;2022-11-20T00:10:46;100450;;;
74485;BMP280;62942;52.462;10.846;2022-11-20T00:11:46;100450;;;
74485;BMP280;62942;52.462;10.846;2022-11-20T00:12:46;100440;;;
74485;BMP280;62942;52.462;10.846;2022-11-20T00:13:47;100450;;;
74485;BMP280;62942;52.462;10.846;2022-11-20T00:14:56;100440;;;
74485;BMP280;62942;52.462;10.846;2022-11-20T00:15:56;100450;;;
74485;BMP280;62942;52.462;10.846;2022-11-20T00:17:06;100450;;;
74485;BMP280;62942;52.462;10.846;2022-11-20T00:18:06;100450;;;
74485;BMP280;62942;52.462;10.846;2022-11-20T00:19:16;100450;;;
74485;BMP280;62942;52.462;10.846;2022-11-20T00:20:25;100450;;;
74485;BMP280;62942;52.462;10.846;2022-11-20T00:21:26;100450;;;
74485;BMP280;62942;52.462;10.846;2022-11-20T00:22:36;100440;;;
74485;BMP280;62942;52.462;10.846;2022-11-20T00:23:46;100440;;;
74485;BMP280;62942;52.462;10.846;2022-11-20T00:24:56;100440;;;
74485;BMP280;62942;52.462;10.846;2022-11-20T00:25:56;100440;;;
74485;BMP280;62942;52.462;10.846;2022-11-20T00:26:56;100440;;;
74485;BMP280;62942;52.462;10.846;2022-11-20T00:28:06;100440;;;
74485;BMP280;62942;52.462;10.846;2022-11-20T00:29:15;100440;;;
74485;BMP280;62942;52.462;10.846;2022-11-20T00:30:16;100450;;;
74485;BMP280;62942;52.462;10.846;2022-11-20T00:31:26;100440;;;
74485;BMP280;62942;52.462;10.846;2022-11-20T00:32:35;100440;;;
74485;BMP280;62942;52.462;10.846;2022-11-20T00:33:36;100430;;;
74485;BMP280;62942;52.462;10.846;2022-11-20T00:34:45;100440;;;
74485;BMP280;62942;52.462;10.846;2022-11-20T00:35:46;100440;;;
74485;BMP280;62942;52.462;10.846;2022-11-20T00:36:55;100440;;;
74485;BMP280;62942;52.462;10.846;2022-11-20T00:37:55;100450;;;
74485;BMP280;62942;52.462;10.846;2022-11-20T00:38:56;100440;;;
74485;BMP280;62942;52.462;10.846;2022-11-20T00:40:06;100440;;;
74485;BMP280;62942;52.462;10.846;2022-11-20T00:41:16;100430;;;
74485;BMP280;62942;52.462;10.846;2022-11-20T00:42:25;100430;;;
74485;BMP280;62942;52.462;10.846;2022-11-20T00:43:26;100430;;;
74485;BMP280;62942;52.462;10.846;2022-11-20T00:44:35;100430;;;
74485;BMP280;62942;52.462;10.846;2022-11-20T00:45:35;100430;;;
74485;BMP280;62942;52.462;10.846;2022-11-20T00:46:45;100430;;;
74485;BMP280;62942;52.462;10.846;2022-11-20T00:47:45;100420;;;
74485;BMP280;62942;52.462;10.846;2022-11-20T00:48:46;100430;;;
74485;BMP280;62942;52.462;10.846;2022-11-20T00:49:55;100430;;;
74485;BMP280;62942;52.462;10.846;2022-11-20T00:50:56;100430;;;
74485;BMP280;62942;52.462;10.846;2022-11-20T00:52:05;100430;;;
74485;BMP280;62942;52.462;10.846;2022-11-20T00:53:05;100430;;;
74485;BMP280;62942;52.462;10.846;2022-11-20T00:54:16;100430;;;
74485;BMP280;62942;52.462;10.846;2022-11-20T00:55:25;100420;;;
74485;BMP280;62942;52.462;10.846;2022-11-20T00:56:26;100440;;;
74485;BMP280;62942;52.462;10.846;2022-11-20T00:57:25;100440;;;
74485;BMP280;62942;52.462;10.846;2022-11-20T00:58:36;100430;;;
74485;BMP280;62942;52.462;10.846;2022-11-20T00:59:35;100430;;;
74485;BMP280;62942;52.462;10.846;2022-11-20T01:00:45;100440;;;
74485;BMP280;62942;52.462;10.846;2022-11-20T01:01:45;100440;;;
74485;BMP280;62942;52.462;10.846;2022-11-20T01:02:55;100440;;;
74485;BMP280;62942;52.462;10.846;2022-11-20T01:03:56;100430;;;
74485;BMP280;62942;52.462;10.846;2022-11-20T01:05:06;100430;;;
74485;BMP280;62942;52.462;10.846;2022-11-20T01:06:06;100430;;;
74485;BMP280;62942;52.462;10.846;2022-11-20T01:07:05;100430;;;
74485;BMP280;62942;52.462;10.846;2022-11-20T01:08:15;100440;;;
74485;BMP280;62942;52.462;10.846;2022-11-20T01:09:25;100440;;;
74485;BMP280;62942;52.462;10.846;2022-11-20T01:10:25;100430;;;
74485;BMP280;62942;52.462;10.846;2022-11-20T01:11:36;100440;;;
74485;BMP280;62942;52.462;10.846;2022-11-20T01:12:35;100440;;;
74485;BMP280;62942;52.462;10.846;2022-11-20T01:13:46;100440;;;
74485;BMP280;62942;52.462;10.846;2022-11-20T01:14:46;100440;;;
74485;BMP280;62942;52.462;10.846;2022-11-20T01:15:45;100430;;;
74485;BMP280;62942;52.462;10.846;2022-11-20T01:16:55;100430;;;
74485;BMP280;62942;52.462;10.846;2022-11-20T01:17:55;100430;;;
74485;BMP280;62942;52.462;10.846;2022-11-20T01:18:56;100430;;;
74485;BMP280;62942;52.462;10.846;2022-11-20T01:20:06;100440;;;
74485;BMP280;62942;52.462;10.846;2022-11-20T01:21:06;100440;;;
74485;BMP280;62942;52.462;10.846;2022-11-20T01:22:15;100430;;;
74485;BMP280;62942;52.462;10.846;2022-11-20T01:23:15;100430;;;
74485;BMP280;62942;52.462;10.846;2022-11-20T01:24:25;100440;;;
74485;BMP280;62942;52.462;10.846;2022-11-20T01:25:25;100430;;;
74485;BMP280;62942;52.462;10.846;2022-11-20T01:26:36;100430;;;
74485;BMP280;62942;52.462;10.846;2022-11-20T01:27:35;100430;;;
74485;BMP280;62942;52.462;10.846;2022-11-20T01:28:36;100430;;;
74485;BMP280;62942;52.462;10.846;2022-11-20T01:29:45;100430;;;
74485;BMP280;62942;52.462;10.846;2022-11-20T01:30:45;100430;;;
74485;BMP280;62942;52.462;10.846;2022-11-20T01:31:55;100430;;;
74485;BMP280;62942;52.462;10.846;2022-11-20T01:33:05;100430;;;
74485;BMP280;62942;52.462;10.846;2022-11-20T01:34:06;100430;;;
74485;BMP280;62942;52.462;10.846;2022-11-20T01:35:15;100430;;;
74485;BMP280;62942;52.462;10.846;2022-11-20T01:36:16;100430;;;
74485;BMP280;62942;52.462;10.846;2022-11-20T01:37:25;100420;;;
74485;BMP280;62942;52.462;10.846;2022-11-20T01:38:25;100420;;;
74485;BMP280;62942;52.462;10.846;2022-11-20T01:39:26;100420;;;
74485;BMP280;62942;52.462;10.846;2022-11-20T01:40:35;100420;;;
74485;BMP280;62942;52.462;10.846;2022-11-20T01:41:35;100420;;;
74485;BMP280;62942;52.462;10.846;2022-11-20T01:42:47;100420;;;
74485;BMP280;62942;52.462;10.846;2022-11-20T01:43:45;100420;;;
74485;BMP280;62942;52.462;10.846;2022-11-20T01:44:56;100420;;;
74485;BMP280;62942;52.462;10.846;2022-11-20T01:45:58;100420;;;
74485;BMP280;62942;52.462;10.846;2022-11-20T01:47:05;100420;;;
74485;BMP280;62942;52.462;10.846;2022-11-20T01:48:15;100420;;;
74485;BMP280;62942;52.462;10.846;2022-11-20T01:49:16;100410;;;
74485;BMP280;62942;52.462;10.846;2022-11-20T01:50:26;100410;;;
74485;BMP280;62942;52.462;10.846;2022-11-20T01:51:38;100410;;;
74485;BMP280;62942;52.462;10.846;2022-11-20T01:52:36;100410;;;
74485;BMP280;62942;52.462;10.846;2022-11-20T01:53:45;100410;;;
74485;BMP280;62942;52.462;10.846;2022-11-20T01:54:46;100410;;;
74485;BMP280;62942;52.462;10.846;2022-11-20T01:55:56;100400;;;
74485;BMP280;62942;52.462;10.846;2022-11-20T01:57:05;100400;;;
74485;BMP280;62942;52.462;10.846;2022-11-20T01:58:05;100390;;;
74485;BMP280;62942;52.462;10.846;2022-11-20T01:59:16;100400;;;
74485;BMP280;62942;52.462;10.846;2022-11-20T02:00:16;100400;;;
74485;BMP280;62942;52.462;10.846;2022-11-20T02:01:25;100390;;;
74485;BMP280;62942;52.462;10.846;2022-11-20T02:02:25;100390;;;
74485;BMP280;62942;52.462;10.846;2022-11-20T02:03:25;100380;;;
74485;BMP280;62942;52.462;10.846;2022-11-20T02:04:25;100390;;;
74485;BMP280;62942;52.462;10.846;2022-11-20T02:05:36;100400;;;
74485;BMP280;62942;52.462;10.846;2022-11-20T02:06:36;100390;;;
74485;BMP280;62942;52.462;10.846;2022-11-20T02:07:45;100390;;;
74485;BMP280;62942;52.462;10.846;2022-11-20T02:08:55;100390;;;
74485;BMP280;62942;52.462;10.846;2022-11-20T02:10:05;100380;;;
74485;BMP280;62942;52.462;10.846;2022-11-20T02:11:15;100390;;;
74485;BMP280;62942;52.462;10.846;2022-11-20T02:12:25;100390;;;
74485;BMP280;62942;52.462;10.846;2022-11-20T02:13:25;100390;;;
74485;BMP280;62942;52.462;10.846;2022-11-20T02:14:35;100380;;;
74485;BMP280;62942;52.462;10.846;2022-11-20T02:15:35;100380;;;
74485;BMP280;62942;52.462;10.846;2022-11-20T02:16:46;100390;;;
74485;BMP280;62942;52.462;10.846;2022-11-20T02:17:55;100390;;;
74485;BMP280;62942;52.462;10.846;2022-11-20T02:18:56;100380;;;
74485;BMP280;62942;52.462;10.846;2022-11-20T02:19:55;100380;;;
74485;BMP280;62942;52.462;10.846;2022-11-20T02:20:57;100380;;;
74485;BMP280;62942;52.462;10.846;2022-11-20T02:22:07;100370;;;
74485;BMP280;62942;52.462;10.846;2022-11-20T02:23:07;100380;;;
74485;BMP280;62942;52.462;10.846;2022-11-20T02:24:16;100380;;;
74485;BMP280;62942;52.462;10.846;2022-11-20T02:25:15;100370;;;
74485;BMP280;62942;52.462;10.846;2022-11-20T02:26:15;100370;;;
74485;BMP280;62942;52.462;10.846;2022-11-20T02:27:25;100370;;;
74485;BMP280;62942;52.462;10.846;2022-11-20T02:28:25;100370;;;
74485;BMP280;62942;52.462;10.846;2022-11-20T02:29:36;100370;;;
74485;BMP280;62942;52.462;10.846;2022-11-20T02:30:35;100370;;;
74485;BMP280;62942;52.462;10.846;2022-11-20T02:31:36;100370;;;
74485;BMP280;62942;52.462;10.846;2022-11-20T02:32:45;100370;;;
74485;BMP280;62942;52.462;10.846;2022-11-20T02:33:45;100370;;;
74485;BMP280;62942;52.462;10.846;2022-11-20T02:34:45;100370;;;
74485;BMP280;62942;52.462;10.846;2022-11-20T02:35:55;100360;;;
74485;BMP280;62942;52.462;10.846;2022-11-20T02:37:05;100370;;;
74485;BMP280;62942;52.462;10.846;2022-11-20T02:38:05;100370;;;
74485;BMP280;62942;52.462;10.846;2022-11-20T02:39:05;100370;;;
74485;BMP280;62942;52.462;10.846;2022-11-20T02:40:06;100370;;;
74485;BMP280;62942;52.462;10.846;2022-11-20T02:41:15;100370;;;
74485;BMP280;62942;52.462;10.846;2022-11-20T02:42:25;100360;;;
74485;BMP280;62942;52.462;10.846;2022-11-20T02:43:25;100360;;;
74485;BMP280;62942;52.462;10.846;2022-11-20T02:44:25;100360;;;
74485;BMP280;62942;52.462;10.846;2022-11-20T02:45:35;100360;;;
74485;BMP280;62942;52.462;10.846;2022-11-20T02:46:35;100360;;;
74485;BMP280;62942;52.462;10.846;2022-11-20T02:47:35;100360;;;
74485;BMP280;62942;52.462;10.846;2022-11-20T02:48:45;100350;;;
74485;BMP280;62942;52.462;10.846;2022-11-20T02:49:45;100350;;;
74485;BMP280;62942;52.462;10.846;2022-11-20T02:50:55;100350;;;
74485;BMP280;62942;52.462;10.846;2022-11-20T02:51:55;100350;;;
74485;BMP280;62942;52.462;10.846;2022-11-20T02:53:05;100350;;;
74485;BMP280;62942;52.462;10.846;2022-11-20T02:54:05;100350;;;
74485;BMP280;62942;52.462;10.846;2022-11-20T02:55:06;100350;;;
74485;BMP280;62942;52.462;10.846;2022-11-20T02:56:15;100350;;;
74485;BMP280;62942;52.462;10.846;2022-11-20T02:57:25;100350;;;
74485;BMP280;62942;52.462;10.846;2022-11-20T02:58:35;100350;;;
74485;BMP280;62942;52.462;10.846;2022-11-20T02:59:35;100360;;;
74485;BMP280;62942;52.462;10.846;2022-11-20T03:00:45;100350;;;
74485;BMP280;62942;52.462;10.846;2022-11-20T03:01:45;100350;;;
74485;BMP280;62942;52.462;10.846;2022-11-20T03:02:55;100350;;;
74485;BMP280;62942;52.462;10.846;2022-11-20T03:03:55;100340;;;
74485;BMP280;62942;52.462;10.846;2022-11-20T03:05:05;100350;;;
74485;BMP280;62942;52.462;10.846;2022-11-20T03:06:15;100340;;;
74485;BMP280;62942;52.462;10.846;2022-11-20T03:07:15;100340;;;
74485;BMP280;62942;52.462;10.846;2022-11-20T03:08:15;100340;;;
74485;BMP280;62942;52.462;10.846;2022-11-20T03:09:25;100350;;;
74485;BMP280;62942;52.462;10.846;2022-11-20T03:10:25;100350;;;
74485;BMP280;62942;52.462;10.846;2022-11-20T03:11:35;100350;;;
74485;BMP280;62942;52.462;10.846;2022-11-20T03:12:35;100350;;;
74485;BMP280;62942;52.462;10.846;2022-11-20T03:13:45;100350;;;
74485;BMP280;62942;52.462;10.846;2022-11-20T03:14:45;100350;;;
74485;BMP280;62942;52.462;10.846;2022-11-20T03:15:55;100350;;;
74485;BMP280;62942;52.462;10.846;2022-11-20T03:17:05;100350;;;
74485;BMP280;62942;52.462;10.846;2022-11-20T03:18:05;100350;;;
74485;BMP280;62942;52.462;10.846;2022-11-20T03:19:05;100350;;;
74485;BMP280;62942;52.462;10.846;2022-11-20T03:20:15;100350;;;
74485;BMP280;62942;52.462;10.846;2022-11-20T03:21:15;100350;;;
74485;BMP280;62942;52.462;10.846;2022-11-20T03:22:25;100360;;;
74485;BMP280;62942;52.462;10.846;2022-11-20T03:23:35;100350;;;
74485;BMP280;62942;52.462;10.846;2022-11-20T03:24:35;100360;;;
74485;BMP280;62942;52.462;10.846;2022-11-20T03:25:45;100360;;;
74485;BMP280;62942;52.462;10.846;2022-11-20T03:26:45;100350;;;
74485;BMP280;62942;52.462;10.846;2022-11-20T03:27:55;100350;;;
74485;BMP280;62942;52.462;10.846;2022-11-20T03:28:56;100340;;;
74485;BMP280;62942;52.462;10.846;2022-11-20T03:30:06;100350;;;
74485;BMP280;62942;52.462;10.846;2022-11-20T03:31:06;100340;;;
74485;BMP280;62942;52.462;10.846;2022-11-20T03:32:15;100350;;;
74485;BMP280;62942;52.462;10.846;2022-11-20T03:33:15;100350;;;
74485;BMP280;62942;52.462;10.846;2022-11-20T03:34:25;100350;;;
74485;BMP280;62942;52.462;10.846;2022-11-20T03:35:35;100350;;;
74485;BMP280;62942;52.462;10.846;2022-11-20T03:36:37;100350;;;
74485;BMP280;62942;52.462;10.846;2022-11-20T03:37:45;100340;;;
74485;BMP280;62942;52.462;10.846;2022-11-20T03:38:45;100340;;;
74485;BMP280;62942;52.462;10.846;2022-11-20T03:39:45;100340;;;
74485;BMP280;62942;52.462;10.846;2022-11-20T03:40:57;100340;;;
74485;BMP280;62942;52.462;10.846;2022-11-20T03:41:55;100340;;;
74485;BMP280;62942;52.462;10.846;2022-11-20T03:43:05;100340;;;
74485;BMP280;62942;52.462;10.846;2022-11-20T03:44:06;100350;;;
74485;BMP280;62942;52.462;10.846;2022-11-20T03:45:16;100340;;;
74485;BMP280;62942;52.462;10.846;2022-11-20T03:46:15;100340;;;
74485;BMP280;62942;52.462;10.846;2022-11-20T03:47:25;100340;;;
74485;BMP280;62942;52.462;10.846;2022-11-20T03:48:35;100340;;;
74485;BMP280;62942;52.462;10.846;2022-11-20T03:49:35;100340;;;
74485;BMP280;62942;52.462;10.846;2022-11-20T03:50:35;100340;;;
74485;BMP280;62942;52.462;10.846;2022-11-20T03:51:45;100340;;;
74485;BMP280;62942;52.462;10.846;2022-11-20T03:52:45;100340;;;
74485;BMP280;62942;52.462;10.846;2022-11-20T03:53:57;100330;;;
74485;BMP280;62942;52.462;10.846;2022-11-20T03:54:55;100330;;;
74485;BMP280;62942;52.462;10.846;2022-11-20T03:56:05;100340;;;
74485;BMP280;62942;52.462;10.846;2022-11-20T03:57:05;100330;;;
74485;BMP280;62942;52.462;10.846;2022-11-20T03:58:15;100330;;;
74485;BMP280;62942;52.462;10.846;2022-11-20T03:59:15;100330;;;
74485;BMP280;62942;52.462;10.846;2022-11-20T04:00:25;100330;;;
74485;BMP280;62942;52.462;10.846;2022-11-20T04:01:36;100330;;;
74485;BMP280;62942;52.462;10.846;2022-11-20T04:02:45;100320;;;
74485;BMP280;62942;52.462;10.846;2022-11-20T04:03:55;100330;;;
74485;BMP280;62942;52.462;10.846;2022-11-20T04:04:55;100330;;;
74485;BMP280;62942;52.462;10.846;2022-11-20T04:06:06;100330;;;
74485;BMP280;62942;52.462;10.846;2022-11-20T04:07:05;100330;;;
74485;BMP280;62942;52.462;10.846;2022-11-20T04:08:15;100320;;;
74485;BMP280;62942;52.462;10.846;2022-11-20T04:09:25;100320;;;
74485;BMP280;62942;52.462;10.846;2022-11-20T04:10:25;100320;;;
74485;BMP280;62942;52.462;10.846;2022-11-20T04:11:36;100320;;;
74485;BMP280;62942;52.462;10.846;2022-11-20T04:12:35;100320;;;
74485;BMP280;62942;52.462;10.846;2022-11-20T04:13:46;100320;;;
74485;BMP280;62942;52.462;10.846;2022-11-20T04:14:45;100320;;;
74485;BMP280;62942;52.462;10.846;2022-11-20T04:15:56;100320;;;
74485;BMP280;62942;52.462;10.846;2022-11-20T04:16:55;100320;;;
74485;BMP280;62942;52.462;10.846;2022-11-20T04:18:05;100320;;;
74485;BMP280;62942;52.462;10.846;2022-11-20T04:19:15;100310;;;
74485;BMP280;62942;52.462;10.846;2022-11-20T04:20:15;100310;;;
74485;BMP280;62942;52.462;10.846;2022-11-20T04:21:25;100310;;;
74485;BMP280;62942;52.462;10.846;2022-11-20T04:22:25;100300;;;
74485;BMP280;62942;52.462;10.846;2022-11-20T04:23:35;100310;;;
74485;BMP280;62942;52.462;10.846;2022-11-20T04:24:35;100310;;;
74485;BMP280;62942;52.462;10.846;2022-11-20T04:25:45;100310;;;
74485;BMP280;62942;52.462;10.846;2022-11-20T04:26:55;100310;;;
74485;BMP280;62942;52.462;10.846;2022-11-20T04:27:55;100310;;;
74485;BMP280;62942;52.462;10.846;2022-11-20T04:28:56;100310;;;
74485;BMP280;62942;52.462;10.846;2022-11-20T04:30:05;100300;;;
74485;BMP280;62942;52.462;10.846;2022-11-20T04:31:16;100300;;;
74485;BMP280;62942;52.462;10.846;2022-11-20T04:32:25;100300;;;
74485;BMP280;62942;52.462;10.846;2022-11-20T04:33:25;100290;;;
74485;BMP280;62942;52.462;10.846;2022-11-20T04:34:35;100310;;;
74485;BMP280;62942;52.462;10.846;2022-11-20T04:35:45;100300;;;
74485;BMP280;62942;52.462;10.846;2022-11-20T04:36:55;100300;;;
74485;BMP280;62942;52.462;10.846;2022-11-20T04:37:55;100300;;;
74485;BMP280;62942;52.462;10.846;2022-11-20T04:38:56;100300;;;
74485;BMP280;62942;52.462;10.846;2022-11-20T04:40:05;100290;;;
74485;BMP280;62942;52.462;10.846;2022-11-20T04:41:16;100290;;;
74485;BMP280;62942;52.462;10.846;2022-11-20T04:42:25;100290;;;
74485;BMP280;62942;52.462;10.846;2022-11-20T04:43:25;100290;;;
74485;BMP280;62942;52.462;10.846;2022-11-20T04:44:35;100300;;;
74485;BMP280;62942;52.462;10.846;2022-11-20T04:45:35;100300;;;
74485;BMP280;62942;52.462;10.846;2022-11-20T04:46:45;100290;;;
74485;BMP280;62942;52.462;10.846;2022-11-20T04:47:55;100290;;;
74485;BMP280;62942;52.462;10.846;2022-11-20T04:49:05;100290;;;
74485;BMP280;62942;52.462;10.846;2022-11-20T04:50:05;100290;;;
74485;BMP280;62942;52.462;10.846;2022-11-20T04:51:15;100290;;;
74485;BMP280;62942;52.462;10.846;2022-11-20T04:52:15;100290;;;
74485;BMP280;62942;52.462;10.846;2022-11-20T04:53:25;100290;;;
74485;BMP280;62942;52.462;10.846;2022-11-20T04:54:35;100290;;;
74485;BMP280;62942;52.462;10.846;2022-11-20T04:55:35;100290;;;
74485;BMP280;62942;52.462;10.846;2022-11-20T04:56:46;100290;;;
74485;BMP280;62942;52.462;10.846;2022-11-20T04:57:45;100290;;;
74485;BMP280;62942;52.462;10.846;2022-11-20T04:58:55;100290;;;
74485;BMP280;62942;52.462;10.846;2022-11-20T05:00:05;100290;;;
74485;BMP280;62942;52.462;10.846;2022-11-20T05:01:06;100300;;;
74485;BMP280;62942;52.462;10.846;2022-11-20T05:02:15;100290;;;
74485;BMP280;62942;52.462;10.846;2022-11-20T05:03:15;100280;;;
74485;BMP280;62942;52.462;10.846;2022-11-20T05:04:25;100290;;;
74485;BMP280;62942;52.462;10.846;2022-11-20T05:05:25;100290;;;
74485;BMP280;62942;52.462;10.846;2022-11-20T05:06:35;100290;;;
74485;BMP280;62942;52.462;10.846;2022-11-20T05:07:35;100290;;;
74485;BMP280;62942;52.462;10.846;2022-11-20T05:08:45;100280;;;
74485;BMP280;62942;52.462;10.846;2022-11-20T05:09:55;100290;;;
74485;BMP280;62942;52.462;10.846;2022-11-20T05:11:06;100280;;;
74485;BMP280;62942;52.462;10.846;2022-11-20T05:12:15;100280;;;
74485;BMP280;62942;52.462;10.846;2022-11-20T05:13:26;100280;;;
74485;BMP280;62942;52.462;10.846;2022-11-20T05:14:25;100280;;;
74485;BMP280;62942;52.462;10.846;2022-11-20T05:15:35;100280;;;
74485;BMP280;62942;52.462;10.846;2022-11-20T05:16:45;100280;;;
74485;BMP280;62942;52.462;10.846;2022-11-20T05:17:55;100290;;;
74485;BMP280;62942;52.462;10.846;2022-11-20T05:18:55;100280;;;
74485;BMP280;62942;52.462;10.846;2022-11-20T05:20:05;100280;;;
74485;BMP280;62942;52.462;10.846;2022-11-20T05:21:15;100280;;;
74485;BMP280;62942;52.462;10.846;2022-11-20T05:22:15;100280;;;
74485;BMP280;62942;52.462;10.846;2022-11-20T05:23:25;100280;;;
74485;BMP280;62942;52.462;10.846;2022-11-20T05:24:25;100280;;;
74485;BMP280;62942;52.462;10.846;2022-11-20T05:25:35;100270;;;
74485;BMP280;62942;52.462;10.846;2022-11-20T05:26:45;100280;;;
74485;BMP280;62942;52.462;10.846;2022-11-20T05:27:45;100270;;;
74485;BMP280;62942;52.462;10.846;2022-11-20T05:28:55;100280;;;
74485;BMP280;62942;52.462;10.846;2022-11-20T05:30:06;100280;;;
74485;BMP280;62942;52.462;10.846;2022-11-20T05:31:05;100280;;;
74485;BMP280;62942;52.462;10.846;2022-11-20T05:32:15;100270;;;
74485;BMP280;62942;52.462;10.846;2022-11-20T05:33:15;100280;;;
74485;BMP280;62942;52.462;10.846;2022-11-20T05:34:25;100270;;;
74485;BMP280;62942;52.462;10.846;2022-11-20T05:35:25;100260;;;
74485;BMP280;62942;52.462;10.846;2022-11-20T05:36:35;100270;;;
74485;BMP280;62942;52.462;10.846;2022-11-20T05:37:35;100270;;;
74485;BMP280;62942;52.462;10.846;2022-11-20T05:38:45;100270;;;
74485;BMP280;62942;52.462;10.846;2022-11-20T05:39:45;100270;;;
74485;BMP280;62942;52.462;10.846;2022-11-20T05:40:55;100270;;;
74485;BMP280;62942;52.462;10.846;2022-11-20T05:41:55;100270;;;
74485;BMP280;62942;52.462;10.846;2022-11-20T05:43:05;100270;;;
74485;BMP280;62942;52.462;10.846;2022-11-20T05:44:05;100270;;;
74485;BMP280;62942;52.462;10.846;2022-11-20T05:45:15;100280;;;
74485;BMP280;62942;52.462;10.846;2022-11-20T05:46:16;100270;;;
74485;BMP280;62942;52.462;10.846;2022-11-20T05:47:25;100270;;;
74485;BMP280;62942;52.462;10.846;2022-11-20T05:48:25;100270;;;
74485;BMP280;62942;52.462;10.846;2022-11-20T05:49:35;100270;;;
74485;BMP280;62942;52.462;10.846;2022-11-20T05:50:35;100270;;;
74485;BMP280;62942;52.462;10.846;2022-11-20T05:51:45;100260;;;
74485;BMP280;62942;52.462;10.846;2022-11-20T05:52:45;100270;;;
74485;BMP280;62942;52.462;10.846;2022-11-20T05:53:56;100260;;;
74485;BMP280;62942;52.462;10.846;2022-11-20T05:55:05;100260;;;
74485;BMP280;62942;52.462;10.846;2022-11-20T05:56:16;100260;;;
74485;BMP280;62942;52.462;10.846;2022-11-20T05:57:15;100270;;;
74485;BMP280;62942;52.462;10.846;2022-11-20T05:58:25;100260;;;
74485;BMP280;62942;52.462;10.846;2022-11-20T05:59:25;100270;;;
74485;BMP280;62942;52.462;10.846;2022-11-20T06:00:25;100270;;;
74485;BMP280;62942;52.462;10.846;2022-11-20T06:01:35;100270;;;
74485;BMP280;62942;52.462;10.846;2022-11-20T06:02:45;100270;;;
74485;BMP280;62942;52.462;10.846;2022-11-20T06:03:45;100270;;;
74485;BMP280;62942;52.462;10.846;2022-11-20T06:04:55;100270;;;
74485;BMP280;62942;52.462;10.846;2022-11-20T06:05:55;100270;;;
74485;BMP280;62942;52.462;10.846;2022-11-20T06:06:55;100260;;;
74485;BMP280;62942;52.462;10.846;2022-11-20T06:08:05;100270;;;
74485;BMP280;62942;52.462;10.846;2022-11-20T06:09:05;100270;;;
74485;BMP280;62942;52.462;10.846;2022-11-20T06:10:15;100260;;;
74485;BMP280;62942;52.462;10.846;2022-11-20T06:11:15;100270;;;
74485;BMP280;62942;52.462;10.846;2022-11-20T06:12:25;100270;;;
74485;BMP280;62942;52.462;10.846;2022-11-20T06:13:25;100270;;;
74485;BMP280;62942;52.462;10.846;2022-11-20T06:14:25;100260;;;
74485;BMP280;62942;52.462;10.846;2022-11-20T06:15:35;100260;;;
74485;BMP280;62942;52.462;10.846;2022-11-20T06:16:35;100250;;;
74485;BMP280;62942;52.462;10.846;2022-11-20T06:17:45;100260;;;
74485;BMP280;62942;52.462;10.846;2022-11-20T06:18:45;100260;;;
74485;BMP280;62942;52.462;10.846;2022-11-20T06:19:45;100260;;;
74485;BMP280;62942;52.462;10.846;2022-11-20T06:20:59;100260;;;
74485;BMP280;62942;52.462;10.846;2022-11-20T06:21:55;100260;;;
74485;BMP280;62942;52.462;10.846;2022-11-20T06:23:05;100250;;;
74485;BMP280;62942;52.462;10.846;2022-11-20T06:24:05;100250;;;
74485;BMP280;62942;52.462;10.846;2022-11-20T06:25:15;100250;;;
74485;BMP280;62942;52.462;10.846;2022-11-20T06:26:26;100250;;;
74485;BMP280;62942;52.462;10.846;2022-11-20T06:27:35;100250;;;
74485;BMP280;62942;52.462;10.846;2022-11-20T06:28:35;100260;;;
74485;BMP280;62942;52.462;10.846;2022-11-20T06:29:35;100260;;;
74485;BMP280;62942;52.462;10.846;2022-11-20T06:30:45;100250;;;
74485;BMP280;62942;52.462;10.846;2022-11-20T06:31:55;100250;;;
74485;BMP280;62942;52.462;10.846;2022-11-20T06:33:05;100250;;;
74485;BMP280;62942;52.462;10.846;2022-11-20T06:34:05;100250;;;
74485;BMP280;62942;52.462;10.846;2022-11-20T06:35:05;100250;;;
74485;BMP280;62942;52.462;10.846;2022-11-20T06:36:16;100260;;;
74485;BMP280;62942;52.462;10.846;2022-11-20T06:37:15;100250;;;
74485;BMP280;62942;52.462;10.846;2022-11-20T06:38:15;100250;;;
74485;BMP280;62942;52.462;10.846;2022-11-20T06:39:15;100250;;;
74485;BMP280;62942;52.462;10.846;2022-11-20T06:40:25;100250;;;
74485;BMP280;62942;52.462;10.846;2022-11-20T06:41:35;100250;;;
74485;BMP280;62942;52.462;10.846;2022-11-20T06:42:35;100250;;;
74485;BMP280;62942;52.462;10.846;2022-11-20T06:43:45;100240;;;
74485;BMP280;62942;52.462;10.846;2022-11-20T06:44:45;100240;;;
74485;BMP280;62942;52.462;10.846;2022-11-20T06:45:45;100240;;;
74485;BMP280;62942;52.462;10.846;2022-11-20T06:46:45;100240;;;
74485;BMP280;62942;52.462;10.846;2022-11-20T06:47:56;100240;;;
74485;BMP280;62942;52.462;10.846;2022-11-20T06:49:05;100250;;;
74485;BMP280;62942;52.462;10.846;2022-11-20T06:50:05;100250;;;
74485;BMP280;62942;52.462;10.846;2022-11-20T06:51:05;100250;;;
74485;BMP280;62942;52.462;10.846;2022-11-20T06:52:15;100250;;;